createdAt,value
2022-08-17T00:00:34.356Z,99064.91
2022-08-17T00:03:10.396Z,99063.59
2022-08-17T00:05:44.179Z,99055.69
2022-08-17T00:08:17.915Z,99057.16
2022-08-17T00:10:46.375Z,99052.62
2022-08-17T00:13:21.366Z,99056.16
2022-08-17T00:15:51.700Z,99053.38
2022-08-17T00:18:58.178Z,99052.62
2022-08-17T00:21:10.831Z,99052.28
2022-08-17T00:23:44.426Z,99061.78
2022-08-17T00:26:43.742Z,99057.34
2022-08-17T00:29:09.170Z,99057.16
2022-08-17T00:31:37.099Z,99058.00
2022-08-17T00:34:05.213Z,99061.72
2022-08-17T00:36:32.985Z,99062.81
2022-08-17T00:39:02.910Z,99069.50
2022-08-17T00:41:30.983Z,99068.09
2022-08-17T00:44:02.432Z,99069.56
2022-08-17T00:46:37.235Z,99070.19
2022-08-17T00:49:06.591Z,99065.47
2022-08-17T00:51:56.733Z,99065.75
2022-08-17T00:54:29.136Z,99064.00
2022-08-17T00:57:07.326Z,99065.16
2022-08-17T00:59:38.720Z,99063.78
2022-08-17T01:02:09.662Z,99057.44
2022-08-17T01:04:37.794Z,99065.56
2022-08-17T01:07:06.055Z,99073.38
2022-08-17T01:09:36.252Z,99061.53
2022-08-17T01:12:06.962Z,99066.16
2022-08-17T01:14:39.329Z,99068.09
2022-08-17T01:17:07.438Z,99077.16
2022-08-17T01:19:39.373Z,99081.09
2022-08-17T01:22:14.355Z,99081.69
2022-08-17T01:24:47.748Z,99085.72
2022-08-17T01:27:16.291Z,99081.31
2022-08-17T01:29:50.149Z,99077.81
2022-08-17T01:32:18.976Z,99084.00
2022-08-17T01:34:50.106Z,99087.34
2022-08-17T01:37:24.304Z,99092.78
2022-08-17T01:39:59.935Z,99081.94
2022-08-17T01:42:42.339Z,99082.97
2022-08-17T01:45:14.965Z,99086.87
2022-08-17T01:47:42.757Z,99087.69
2022-08-17T01:50:15.822Z,99090.44
2022-08-17T01:52:45.837Z,99090.31
2022-08-17T01:55:16.368Z,99094.22
2022-08-17T01:57:45.606Z,99090.62
2022-08-17T02:00:13.767Z,99092.47
2022-08-17T02:02:45.922Z,99098.66
2022-08-17T02:05:14.420Z,99087.37
2022-08-17T02:07:59.334Z,99092.03
2022-08-17T02:10:33.930Z,99091.12
2022-08-17T02:13:04.232Z,99089.66
2022-08-17T02:15:32.334Z,99083.34
2022-08-17T02:17:59.890Z,99081.09
2022-08-17T02:20:41.778Z,99076.59
2022-08-17T02:23:11.962Z,99073.00
2022-08-17T02:25:40.634Z,99074.16
2022-08-17T02:28:08.129Z,99073.31
2022-08-17T02:31:01.155Z,99078.44
2022-08-17T02:33:23.563Z,99078.87
2022-08-17T02:36:10.796Z,99072.91
2022-08-17T02:38:39.863Z,99084.53
2022-08-17T02:41:07.362Z,99078.09
2022-08-17T02:43:35.005Z,99073.41
2022-08-17T02:46:02.764Z,99075.03
2022-08-17T02:48:32.963Z,99078.78
2022-08-17T02:51:00.840Z,99077.31
2022-08-17T02:53:33.683Z,99074.34
2022-08-17T02:56:04.233Z,99080.56
2022-08-17T02:58:34.920Z,99077.75
2022-08-17T03:01:06.101Z,99077.13
2022-08-17T03:03:35.049Z,99079.75
2022-08-17T03:06:03.354Z,99079.75
2022-08-17T03:08:31.011Z,99083.97
2022-08-17T03:10:58.707Z,99084.94
2022-08-17T03:13:27.254Z,99093.87
2022-08-17T03:15:54.695Z,99083.28
2022-08-17T03:18:25.595Z,99087.69
2022-08-17T03:21:01.476Z,99085.09
2022-08-17T03:23:29.475Z,99081.94
2022-08-17T03:25:58.274Z,99080.56
2022-08-17T03:28:26.242Z,99088.56
2022-08-17T03:30:54.384Z,99087.03
2022-08-17T03:33:22.382Z,99084.16
2022-08-17T03:35:50.083Z,99085.84
2022-08-17T03:38:18.290Z,99095.50
2022-08-17T03:40:56.792Z,99092.44
2022-08-17T03:43:32.102Z,99089.88
2022-08-17T03:46:27.823Z,99093.66
2022-08-17T03:49:22.672Z,99092.00
2022-08-17T03:52:08.745Z,99099.53
2022-08-17T03:54:55.492Z,99099.84
2022-08-17T03:57:23.264Z,99105.72
2022-08-17T03:59:51.123Z,99107.81
2022-08-17T04:02:22.749Z,99106.34
2022-08-17T04:04:51.288Z,99096.25
2022-08-17T04:07:20.429Z,99107.28
2022-08-17T04:09:47.961Z,99105.59
2022-08-17T04:12:18.371Z,99109.78
2022-08-17T04:14:52.609Z,99112.91
2022-08-17T04:17:27.982Z,99113.06
2022-08-17T04:19:56.086Z,99110.19
2022-08-17T04:22:33.293Z,99111.88
2022-08-17T04:25:09.161Z,99114.38
2022-08-17T04:27:42.900Z,99113.34
2022-08-17T04:30:11.037Z,99126.16
2022-08-17T04:33:09.820Z,99122.13
2022-08-17T04:35:40.847Z,99123.53
2022-08-17T04:38:13.625Z,99125.81
2022-08-17T04:40:59.684Z,99129.69
2022-08-17T04:43:28.542Z,99129.56
2022-08-17T04:46:02.645Z,99128.34
2022-08-17T04:48:41.018Z,99127.22
2022-08-17T04:51:18.321Z,99132.34
2022-08-17T04:53:51.077Z,99136.38
2022-08-17T04:56:23.750Z,99139.66
2022-08-17T04:58:56.585Z,99138.47
2022-08-17T05:01:25.940Z,99142.63
2022-08-17T05:03:59.438Z,99147.47
2022-08-17T05:06:28.458Z,99145.91
2022-08-17T05:08:57.269Z,99143.38
2022-08-17T05:11:26.229Z,99153.72
2022-08-17T05:13:55.051Z,99159.44
2022-08-17T05:16:25.043Z,99155.63
2022-08-17T05:18:53.092Z,99166.19
2022-08-17T05:21:22.602Z,99162.91
2022-08-17T05:23:56.247Z,99158.69
2022-08-17T05:26:27.360Z,99164.09
2022-08-17T05:28:59.454Z,99156.34
2022-08-17T05:31:28.844Z,99151.06
2022-08-17T05:33:56.777Z,99156.19
2022-08-17T05:36:43.093Z,99158.41
2022-08-17T05:39:16.507Z,99156.44
2022-08-17T05:41:47.711Z,99158.81
2022-08-17T05:44:16.375Z,99165.00
2022-08-17T05:46:48.890Z,99168.03
2022-08-17T05:49:21.572Z,99167.03
2022-08-17T05:52:29.466Z,99164.09
2022-08-17T05:55:06.020Z,99162.37
2022-08-17T05:57:53.258Z,99164.56
2022-08-17T06:00:30.665Z,99163.00
2022-08-17T06:03:17.478Z,99162.41
2022-08-17T06:06:20.360Z,99168.88
2022-08-17T06:09:21.206Z,99165.53
2022-08-17T06:12:31.055Z,99166.16
2022-08-17T06:15:09.668Z,99167.00
2022-08-17T06:17:37.767Z,99175.28
2022-08-17T06:20:15.816Z,99168.94
2022-08-17T06:22:50.717Z,99166.25
2022-08-17T06:25:27.652Z,99169.09
2022-08-17T06:28:05.924Z,99169.00
2022-08-17T06:31:00.560Z,99168.97
2022-08-17T06:33:36.541Z,99166.53
2022-08-17T06:36:23.657Z,99170.16
2022-08-17T06:39:15.626Z,99176.63
2022-08-17T06:41:49.783Z,99173.97
2022-08-17T06:44:49.992Z,99176.50
2022-08-17T06:47:15.745Z,99179.41
2022-08-17T06:50:35.176Z,99187.66
2022-08-17T06:53:30.221Z,99188.59
2022-08-17T06:56:08.903Z,99197.44
2022-08-17T06:58:38.896Z,99196.91
2022-08-17T07:01:15.422Z,99195.34
2022-08-17T07:04:04.989Z,99196.75
2022-08-17T07:06:47.383Z,99200.06
2022-08-17T07:09:39.053Z,99195.41
2022-08-17T07:12:20.154Z,99192.94
2022-08-17T07:14:58.840Z,99193.78
2022-08-17T07:17:47.029Z,99196.75
2022-08-17T07:20:20.768Z,99196.75
2022-08-17T07:23:02.078Z,99197.84
2022-08-17T07:25:35.275Z,99193.19
2022-08-17T07:28:07.031Z,99186.03
2022-08-17T07:30:45.583Z,99188.22
2022-08-17T07:33:20.189Z,99192.06
2022-08-17T07:35:50.192Z,99196.72
2022-08-17T07:38:25.913Z,99196.97
2022-08-17T07:40:57.858Z,99194.69
2022-08-17T07:43:29.800Z,99190.38
2022-08-17T07:46:19.690Z,99191.69
2022-08-17T07:48:50.190Z,99195.69
2022-08-17T07:51:36.581Z,99191.22
2022-08-17T07:54:25.252Z,99197.12
2022-08-17T07:56:58.386Z,99188.09
2022-08-17T07:59:34.828Z,99197.84
2022-08-17T08:02:33.845Z,99201.31
2022-08-17T08:05:13.365Z,99198.69
2022-08-17T08:07:54.335Z,99195.31
2022-08-17T08:10:38.498Z,99196.78
2022-08-17T08:13:18.664Z,99193.50
2022-08-17T08:16:12.385Z,99197.31
2022-08-17T08:18:55.317Z,99196.34
2022-08-17T08:21:43.451Z,99189.66
2022-08-17T08:24:30.933Z,99194.19
2022-08-17T08:27:36.608Z,99194.81
2022-08-17T08:30:05.270Z,99195.84
2022-08-17T08:32:42.920Z,99197.84
2022-08-17T08:35:41.498Z,99208.97
2022-08-17T08:38:12.236Z,99194.19
2022-08-17T08:40:59.520Z,99195.78
2022-08-17T08:43:32.372Z,99201.37
2022-08-17T08:46:21.038Z,99195.13
2022-08-17T08:49:11.917Z,99201.00
2022-08-17T08:51:58.891Z,99196.69
2022-08-17T08:54:38.957Z,99194.88
2022-08-17T08:57:40.852Z,99191.66
2022-08-17T09:00:18.251Z,99191.63
2022-08-17T09:02:58.486Z,99187.28
2022-08-17T09:05:54.167Z,99198.97
2022-08-17T09:08:28.773Z,99194.41
2022-08-17T09:11:11.178Z,99199.59
2022-08-17T09:13:54.344Z,99208.78
2022-08-17T09:16:33.241Z,99194.59
2022-08-17T09:19:12.528Z,99200.00
2022-08-17T09:21:48.543Z,99198.59
2022-08-17T09:24:32.849Z,99205.84
2022-08-17T09:27:22.698Z,99201.13
2022-08-17T09:29:59.516Z,99199.84
2022-08-17T09:32:44.109Z,99204.12
2022-08-17T09:35:20.926Z,99202.16
2022-08-17T09:38:07.317Z,99200.91
2022-08-17T09:41:01.875Z,99196.56
2022-08-17T09:43:49.863Z,99196.09
2022-08-17T09:46:25.754Z,99198.34
2022-08-17T09:49:25.278Z,99194.00
2022-08-17T09:51:57.909Z,99193.72
2022-08-17T09:54:40.356Z,99194.91
2022-08-17T09:57:28.510Z,99196.00
2022-08-17T10:00:31.714Z,99195.59
2022-08-17T10:03:11.952Z,99190.78
2022-08-17T10:06:06.977Z,99193.78
2022-08-17T10:08:46.481Z,99188.06
2022-08-17T10:11:51.570Z,99188.03
2022-08-17T10:14:37.214Z,99186.59
2022-08-17T10:17:25.350Z,99196.34
2022-08-17T10:20:34.041Z,99189.66
2022-08-17T10:23:26.417Z,99191.97
2022-08-17T10:26:15.990Z,99188.84
2022-08-17T10:29:12.862Z,99189.06
2022-08-17T10:31:53.558Z,99191.78
2022-08-17T10:34:42.890Z,99179.06
2022-08-17T10:37:19.839Z,99172.78
2022-08-17T10:40:23.674Z,99188.91
2022-08-17T10:43:00.456Z,99183.81
2022-08-17T10:45:40.737Z,99190.19
2022-08-17T10:48:08.790Z,99183.00
2022-08-17T10:51:00.252Z,99179.13
2022-08-17T10:53:43.660Z,99172.88
2022-08-17T10:56:14.362Z,99181.28
2022-08-17T10:58:55.352Z,99173.22
2022-08-17T11:01:58.355Z,99164.63
2022-08-17T11:04:55.407Z,99164.56
2022-08-17T11:07:43.822Z,99169.78
2022-08-17T11:10:26.780Z,99162.25
2022-08-17T11:13:06.442Z,99175.12
2022-08-17T11:15:58.839Z,99172.09
2022-08-17T11:18:36.661Z,99166.69
2022-08-17T11:21:13.902Z,99172.56
2022-08-17T11:24:02.857Z,99159.81
2022-08-17T11:26:34.764Z,99158.41
2022-08-17T11:29:09.893Z,99153.25
2022-08-17T11:31:42.647Z,99162.87
2022-08-17T11:34:21.727Z,99153.91
2022-08-17T11:37:07.987Z,99153.69
2022-08-17T11:39:47.655Z,99147.69
2022-08-17T11:42:50.478Z,99153.69
2022-08-17T11:45:43.431Z,99153.84
2022-08-17T11:48:40.801Z,99154.41
2022-08-17T11:51:26.955Z,99145.25
2022-08-17T11:54:14.670Z,99141.47
2022-08-17T11:56:44.106Z,99137.88
2022-08-17T11:59:33.350Z,99133.88
2022-08-17T12:02:02.168Z,99127.28
2022-08-17T12:04:35.369Z,99140.41
2022-08-17T12:07:19.703Z,99131.19
2022-08-17T12:09:49.774Z,99118.03
2022-08-17T12:12:20.276Z,99129.84
2022-08-17T12:15:10.685Z,99125.13
2022-08-17T12:17:42.964Z,99125.31
2022-08-17T12:20:22.209Z,99117.84
2022-08-17T12:22:54.966Z,99120.09
2022-08-17T12:25:59.432Z,99111.59
2022-08-17T12:28:30.095Z,99113.84
2022-08-17T12:31:07.433Z,99101.97
2022-08-17T12:33:36.331Z,99104.06
2022-08-17T12:36:07.542Z,99111.38
2022-08-17T12:38:37.660Z,99118.56
2022-08-17T12:41:28.403Z,99112.91
2022-08-17T12:44:02.157Z,99112.66
2022-08-17T12:46:45.362Z,99111.25
2022-08-17T12:49:24.293Z,99112.06
2022-08-17T12:52:16.482Z,99107.72
2022-08-17T12:55:07.501Z,99103.03
2022-08-17T12:57:38.298Z,99101.59
2022-08-17T13:00:08.817Z,99109.66
2022-08-17T13:02:47.277Z,99115.25
2022-08-17T13:05:23.166Z,99112.34
2022-08-17T13:07:53.189Z,99109.28
2022-08-17T13:10:32.815Z,99113.84
2022-08-17T13:13:05.340Z,99089.78
2022-08-17T13:15:50.872Z,99093.47
2022-08-17T13:18:40.322Z,99092.75
2022-08-17T13:21:30.578Z,99102.72
2022-08-17T13:24:13.480Z,99107.13
2022-08-17T13:27:08.005Z,99094.13
2022-08-17T13:29:45.166Z,99094.66
2022-08-17T13:32:23.169Z,99101.84
2022-08-17T13:35:11.931Z,99086.22
2022-08-17T13:37:57.820Z,99085.97
2022-08-17T13:40:30.064Z,99089.66
2022-08-17T13:42:58.457Z,99094.87
2022-08-17T13:45:34.952Z,99096.47
2022-08-17T13:48:20.620Z,99096.88
2022-08-17T13:51:04.624Z,99097.19
2022-08-17T13:53:37.946Z,99088.97
2022-08-17T13:56:37.477Z,99085.59
2022-08-17T13:59:53.622Z,99093.69
2022-08-17T14:02:16.086Z,99086.50
2022-08-17T14:04:45.561Z,99085.06
2022-08-17T14:07:13.159Z,99085.41
2022-08-17T14:09:46.309Z,99079.09
2022-08-17T14:12:17.059Z,99081.38
2022-08-17T14:14:45.371Z,99069.66
2022-08-17T14:17:13.251Z,99072.25
2022-08-17T14:19:41.352Z,99076.06
2022-08-17T14:22:39.691Z,99075.50
2022-08-17T14:25:10.353Z,99070.59
2022-08-17T14:27:52.403Z,99071.22
2022-08-17T14:30:23.465Z,99070.16
2022-08-17T14:32:52.030Z,99069.78
2022-08-17T14:35:22.612Z,99068.63
2022-08-17T14:37:51.225Z,99071.06
2022-08-17T14:40:20.820Z,99065.38
2022-08-17T14:42:48.769Z,99066.78
2022-08-17T14:45:27.015Z,99070.13
2022-08-17T14:48:01.804Z,99064.34
2022-08-17T14:50:29.603Z,99065.63
2022-08-17T14:53:01.425Z,99055.37
2022-08-17T14:55:30.639Z,99064.97
2022-08-17T14:57:58.499Z,99064.16
2022-08-17T15:00:26.976Z,99053.16
2022-08-17T15:03:00.144Z,99057.34
2022-08-17T15:05:33.913Z,99053.91
2022-08-17T15:08:02.708Z,99048.00
2022-08-17T15:10:30.729Z,99054.63
2022-08-17T15:12:58.503Z,99050.97
2022-08-17T15:15:26.753Z,99052.78
2022-08-17T15:17:54.282Z,99045.47
2022-08-17T15:20:28.019Z,99051.28
2022-08-17T15:22:57.527Z,99062.84
2022-08-17T15:25:27.758Z,99055.94
2022-08-17T15:27:56.035Z,99064.34
2022-08-17T15:30:25.782Z,99063.25
2022-08-17T15:32:54.519Z,99057.56
2022-08-17T15:35:27.141Z,99058.38
2022-08-17T15:38:06.535Z,99049.72
2022-08-17T15:40:40.148Z,99055.50
2022-08-17T15:43:11.328Z,99056.47
2022-08-17T15:45:39.290Z,99060.41
2022-08-17T15:48:07.025Z,99058.50
2022-08-17T15:50:34.933Z,99062.16
2022-08-17T15:53:03.606Z,99058.91
2022-08-17T15:55:31.825Z,99056.91
2022-08-17T15:57:59.816Z,99057.22
2022-08-17T16:00:29.243Z,99055.59
2022-08-17T16:03:44.716Z,99062.19
2022-08-17T16:05:47.889Z,99067.12
2022-08-17T16:08:20.669Z,99065.94
2022-08-17T16:10:50.147Z,99063.00
2022-08-17T16:13:19.044Z,99061.09
2022-08-17T16:15:57.142Z,99055.03
2022-08-17T16:18:30.907Z,99062.19
2022-08-17T16:21:26.781Z,99059.53
2022-08-17T16:23:58.189Z,99057.00
2022-08-17T16:26:26.695Z,99061.06
2022-08-17T16:28:54.461Z,99054.06
2022-08-17T16:31:23.966Z,99051.13
2022-08-17T16:34:08.981Z,99049.72
2022-08-17T16:36:39.371Z,99061.88
2022-08-17T16:39:06.856Z,99043.13
2022-08-17T16:41:43.312Z,99045.94
2022-08-17T16:44:15.728Z,99046.13
2022-08-17T16:46:45.838Z,99044.16
2022-08-17T16:49:36.293Z,99039.28
2022-08-17T16:52:03.317Z,99043.03
2022-08-17T16:54:31.104Z,99043.22
2022-08-17T16:56:58.881Z,99040.25
2022-08-17T16:59:31.363Z,99044.62
2022-08-17T17:02:11.394Z,99051.78
2022-08-17T17:04:46.148Z,99042.97
2022-08-17T17:07:36.419Z,99043.88
2022-08-17T17:10:16.827Z,99048.13
2022-08-17T17:13:01.273Z,99046.50
2022-08-17T17:16:09.682Z,99045.84
2022-08-17T17:18:56.523Z,99051.97
2022-08-17T17:21:32.431Z,99055.00
2022-08-17T17:24:05.143Z,99058.34
2022-08-17T17:26:51.087Z,99055.78
2022-08-17T17:29:24.872Z,99059.44
2022-08-17T17:32:09.501Z,99067.75
2022-08-17T17:34:38.475Z,99061.50
2022-08-17T17:37:12.441Z,99066.84
2022-08-17T17:39:46.562Z,99067.41
2022-08-17T17:42:27.793Z,99071.91
2022-08-17T17:45:14.386Z,99075.38
2022-08-17T17:47:41.912Z,99077.34
2022-08-17T17:50:13.080Z,99085.16
2022-08-17T17:52:49.679Z,99086.78
2022-08-17T17:55:40.086Z,99092.28
2022-08-17T17:58:38.825Z,99088.06
2022-08-17T18:01:22.707Z,99090.69
2022-08-17T18:03:53.908Z,99088.44
2022-08-17T18:07:00.359Z,99088.72
2022-08-17T18:10:02.646Z,99093.34
2022-08-17T18:12:37.282Z,99097.66
2022-08-17T18:15:27.457Z,99094.63
2022-08-17T18:18:17.223Z,99101.09
2022-08-17T18:20:53.651Z,99106.19
2022-08-17T18:23:27.614Z,99113.41
2022-08-17T18:25:57.271Z,99117.81
2022-08-17T18:28:39.862Z,99112.28
2022-08-17T18:31:20.954Z,99117.09
2022-08-17T18:33:51.439Z,99112.41
2022-08-17T18:36:34.133Z,99117.81
2022-08-17T18:39:18.221Z,99122.34
2022-08-17T18:41:52.097Z,99124.63
2022-08-17T18:44:55.058Z,99127.91
2022-08-17T18:47:46.581Z,99128.03
2022-08-17T18:50:27.280Z,99128.88
2022-08-17T18:53:30.389Z,99134.69
2022-08-17T18:56:25.393Z,99139.44
2022-08-17T18:59:11.273Z,99138.31
2022-08-17T19:01:52.350Z,99130.25
2022-08-17T19:04:42.879Z,99127.09
2022-08-17T19:07:23.301Z,99128.19
2022-08-17T19:10:12.952Z,99129.75
2022-08-17T19:13:12.522Z,99133.34
2022-08-17T19:16:11.740Z,99134.81
2022-08-17T19:18:40.528Z,99132.41
2022-08-17T19:21:10.402Z,99136.06
2022-08-17T19:23:53.403Z,99138.53
2022-08-17T19:26:51.174Z,99135.94
2022-08-17T19:29:25.777Z,99139.47
2022-08-17T19:31:56.372Z,99137.34
2022-08-17T19:34:33.307Z,99138.47
2022-08-17T19:37:03.960Z,99150.53
2022-08-17T19:40:24.497Z,99145.59
2022-08-17T19:43:31.238Z,99132.19
2022-08-17T19:46:19.123Z,99145.59
2022-08-17T19:48:56.661Z,99142.03
2022-08-17T19:51:42.425Z,99148.31
2022-08-17T19:54:55.559Z,99142.84
2022-08-17T19:57:44.506Z,99148.34
2022-08-17T20:00:15.789Z,99146.44
2022-08-17T20:02:49.713Z,99130.81
2022-08-17T20:05:21.736Z,99137.34
2022-08-17T20:08:01.156Z,99133.81
2022-08-17T20:10:48.037Z,99133.81
2022-08-17T20:13:33.926Z,99142.03
2022-08-17T20:16:03.127Z,99130.00
2022-08-17T20:18:33.872Z,99129.72
2022-08-17T20:21:10.375Z,99135.75
2022-08-17T20:23:59.613Z,99131.38
2022-08-17T20:26:37.036Z,99127.53
2022-08-17T20:29:13.920Z,99129.47
2022-08-17T20:32:05.876Z,99135.19
2022-08-17T20:34:38.113Z,99125.34
2022-08-17T20:37:10.817Z,99129.41
2022-08-17T20:39:49.936Z,99131.87
2022-08-17T20:42:20.303Z,99128.00
2022-08-17T20:45:03.941Z,99124.72
2022-08-17T20:48:01.161Z,99121.44
2022-08-17T20:50:37.939Z,99123.97
2022-08-17T20:53:08.655Z,99125.03
2022-08-17T20:55:51.372Z,99115.97
2022-08-17T20:58:24.644Z,99117.69
2022-08-17T21:00:59.165Z,99119.78
2022-08-17T21:03:32.229Z,99126.34
2022-08-17T21:06:20.189Z,99124.13
2022-08-17T21:08:53.846Z,99124.06
2022-08-17T21:11:57.134Z,99126.19
2022-08-17T21:14:18.111Z,99119.09
2022-08-17T21:17:31.128Z,99127.91
2022-08-17T21:20:43.727Z,99123.50
2022-08-17T21:23:24.236Z,99122.50
2022-08-17T21:26:12.791Z,99127.97
2022-08-17T21:29:00.253Z,99121.16
2022-08-17T21:31:35.505Z,99133.75
2022-08-17T21:34:17.531Z,99133.59
2022-08-17T21:36:47.283Z,99135.62
2022-08-17T21:39:17.497Z,99135.03
2022-08-17T21:41:55.377Z,99135.25
2022-08-17T21:44:34.362Z,99138.06
2022-08-17T21:47:19.728Z,99135.09
2022-08-17T21:49:49.488Z,99132.84
2022-08-17T21:52:19.210Z,99137.66
2022-08-17T21:55:00.389Z,99130.91
2022-08-17T21:57:29.112Z,99132.78
2022-08-17T21:59:59.677Z,99144.91
2022-08-17T22:02:32.905Z,99148.72
2022-08-17T22:05:05.252Z,99146.56
2022-08-17T22:07:37.674Z,99161.91
2022-08-17T22:10:08.024Z,99158.91
2022-08-17T22:12:35.562Z,99160.81
2022-08-17T22:15:06.171Z,99157.97
2022-08-17T22:17:38.391Z,99164.84
2022-08-17T22:20:16.925Z,99162.59
2022-08-17T22:23:06.463Z,99169.09
2022-08-17T22:25:39.090Z,99174.22
2022-08-17T22:28:09.134Z,99173.06
2022-08-17T22:30:41.537Z,99175.72
2022-08-17T22:34:02.015Z,99179.56
2022-08-17T22:36:34.784Z,99180.44
2022-08-17T22:39:26.289Z,99179.09
2022-08-17T22:41:59.487Z,99180.22
2022-08-17T22:44:33.433Z,99180.56
2022-08-17T22:47:11.299Z,99184.31
2022-08-17T22:50:03.658Z,99185.47
2022-08-17T22:53:00.610Z,99185.87
2022-08-17T22:55:49.486Z,99191.59
2022-08-17T22:58:38.067Z,99191.44
2022-08-17T23:01:35.690Z,99197.84
2022-08-17T23:04:07.759Z,99199.56
2022-08-17T23:06:37.737Z,99206.22
2022-08-17T23:09:06.787Z,99202.50
2022-08-17T23:11:58.805Z,99199.56
2022-08-17T23:14:31.721Z,99200.03
2022-08-17T23:16:59.436Z,99205.19
2022-08-17T23:19:28.403Z,99205.22
2022-08-17T23:21:56.553Z,99208.91
2022-08-17T23:24:38.088Z,99212.31
2022-08-17T23:27:07.598Z,99215.37
2022-08-17T23:29:35.540Z,99225.56
2022-08-17T23:32:04.821Z,99229.03
2022-08-17T23:34:33.069Z,99220.94
2022-08-17T23:37:02.330Z,99204.41
2022-08-17T23:39:30.297Z,99198.81
2022-08-17T23:41:59.517Z,99206.25
2022-08-17T23:44:28.771Z,99206.94
2022-08-17T23:46:57.105Z,99191.78
2022-08-17T23:49:25.347Z,99185.59
2022-08-17T23:51:55.573Z,99192.37
2022-08-17T23:54:28.387Z,99192.37
2022-08-17T23:56:56.417Z,99195.53
2022-08-17T23:59:23.935Z,99191.59
